Time;durP1;ratioP1;P1;durP2;ratioP2;P2;SDS_P1;SDS_P2;PMS_P1;PMS_P2;Temp;Humidity;BMP_temperature;BMP_pressure;BME280_temperature;BME280_humidity;BME280_pressure;Samples;Min_cycle;Max_cycle;Signal;HPM_P1;HPM_P2
2023/03/12 00:01:10;;;;;;;9.85;4.07;;;;;;;-3.30;100.00;97934.09;2537054;29;20064;-81
2023/03/12 00:02:26;;;;;;;8.90;3.90;;;;;;;-3.15;100.00;97941.22;2537169;29;20059;-85
2023/03/12 00:03:41;;;;;;;8.18;3.65;;;;;;;-3.50;100.00;97939.69;2536833;29;20056;-81
2023/03/12 00:04:57;;;;;;;9.38;3.10;;;;;;;-3.69;100.00;97941.88;2536998;29;20115;-81
2023/03/12 00:06:13;;;;;;;10.10;4.00;;;;;;;-3.30;100.00;97934.09;2536870;29;20142;-87
2023/03/12 00:07:29;;;;;;;10.18;4.30;;;;;;;-3.21;100.00;97943.63;2536759;29;20056;-81
2023/03/12 00:08:44;;;;;;;11.18;4.78;;;;;;;-3.39;100.00;97934.78;2536965;29;20051;-81
2023/03/12 00:10:00;;;;;;;10.60;4.68;;;;;;;-3.50;100.00;97949.06;2536785;29;20079;-81
2023/03/12 00:11:17;;;;;;;9.10;4.07;;;;;;;-3.44;100.00;97944.06;2537115;29;20483;-81
2023/03/12 00:12:33;;;;;;;9.35;4.90;;;;;;;-3.04;100.00;97942.28;2537067;29;20495;-82
2023/03/12 00:13:55;;;;;;;11.77;4.85;;;;;;;-2.98;100.00;97952.63;2537147;29;20127;-81
2023/03/12 00:15:10;;;;;;;11.85;4.75;;;;;;;-2.99;100.00;97953.44;2536938;29;20052;-81
2023/03/12 00:16:26;;;;;;;9.27;4.57;;;;;;;-3.06;100.00;97954.19;2537133;29;20410;-81
2023/03/12 00:17:42;;;;;;;11.73;4.70;;;;;;;-3.54;100.00;97958.38;2536800;29;20084;-84
2023/03/12 00:18:58;;;;;;;12.65;4.72;;;;;;;-3.20;100.00;97960.75;2536739;29;20060;-82
2023/03/12 00:20:14;;;;;;;14.43;6.53;;;;;;;-2.95;100.00;97959.50;2536869;29;20056;-81
2023/03/12 00:21:29;;;;;;;13.40;6.43;;;;;;;-3.01;100.00;97959.38;2536837;29;20059;-82
2023/03/12 00:22:45;;;;;;;15.05;6.28;;;;;;;-3.28;100.00;97960.59;2526363;29;20393;-81
2023/03/12 00:24:00;;;;;;;13.93;7.00;;;;;;;-3.14;100.00;97968.53;2530545;29;20063;-81
2023/03/12 00:25:16;;;;;;;11.98;6.20;;;;;;;-3.12;100.00;97966.88;2537009;29;20134;-81
2023/03/12 00:26:32;;;;;;;16.67;6.40;;;;;;;-3.26;100.00;97971.75;2537127;29;20111;-81
2023/03/12 00:27:47;;;;;;;16.17;6.25;;;;;;;-3.21;100.00;97972.69;2536911;29;20059;-80
2023/03/12 00:29:03;;;;;;;11.70;6.03;;;;;;;-3.44;100.00;97973.06;2537184;29;20079;-81
2023/03/12 00:30:19;;;;;;;11.93;6.07;;;;;;;-3.49;100.00;97973.81;2536649;29;20060;-81
2023/03/12 00:31:35;;;;;;;12.45;5.43;;;;;;;-3.57;100.00;97969.41;2536964;29;20048;-86
2023/03/12 00:32:51;;;;;;;13.75;5.85;;;;;;;-3.48;100.00;97971.28;2536836;29;20270;-81
2023/03/12 00:34:06;;;;;;;13.05;6.18;;;;;;;-4.00;100.00;97971.06;2536927;29;20404;-81
2023/03/12 00:35:22;;;;;;;11.70;5.65;;;;;;;-3.86;100.00;97968.78;2536903;29;20051;-81
2023/03/12 00:36:40;;;;;;;11.80;5.70;;;;;;;-3.74;100.00;97973.31;2536583;29;20087;-81
2023/03/12 00:37:55;;;;;;;13.93;5.60;;;;;;;-3.83;100.00;97977.41;2536411;29;20044;-80
2023/03/12 00:39:11;;;;;;;13.07;6.00;;;;;;;-3.60;100.00;97979.59;2537153;29;20091;-81
2023/03/12 00:40:27;;;;;;;11.90;5.57;;;;;;;-3.51;100.00;97978.91;2536847;29;20067;-81
2023/03/12 00:41:42;;;;;;;10.98;5.93;;;;;;;-3.32;100.00;97981.84;2536856;29;20167;-85
2023/03/12 00:42:58;;;;;;;19.70;6.47;;;;;;;-3.41;100.00;97975.72;2536536;29;20575;-83
2023/03/12 00:44:13;;;;;;;13.98;5.70;;;;;;;-3.41;100.00;97982.53;2536401;29;20052;-81
2023/03/12 00:45:29;;;;;;;11.02;5.30;;;;;;;-3.66;100.00;97987.13;2536539;29;20054;-83
2023/03/12 00:46:45;;;;;;;14.60;6.18;;;;;;;-3.77;100.00;97980.91;2526227;29;20122;-79
2023/03/12 00:48:01;;;;;;;11.80;5.40;;;;;;;-3.73;100.00;97982.72;2530493;29;20087;-79
2023/03/12 00:49:17;;;;;;;9.70;4.68;;;;;;;-4.05;100.00;97983.72;2536729;29;20059;-79
2023/03/12 00:50:32;;;;;;;11.52;5.18;;;;;;;-3.83;100.00;97984.22;2536733;29;20954;-80
2023/03/12 00:51:48;;;;;;;9.27;4.25;;;;;;;-3.86;100.00;97985.00;2536491;29;20063;-81
2023/03/12 00:53:03;;;;;;;8.32;4.85;;;;;;;-3.83;100.00;97979.09;2536280;29;20059;-80
2023/03/12 00:54:20;;;;;;;11.63;4.82;;;;;;;-3.90;100.00;97990.91;2536538;29;20071;-80
2023/03/12 00:55:35;;;;;;;12.13;4.70;;;;;;;-3.98;100.00;97984.72;2536523;29;20079;-80
2023/03/12 00:56:51;;;;;;;9.93;4.50;;;;;;;-3.89;100.00;97982.38;2536618;29;20063;-79
2023/03/12 00:58:07;;;;;;;11.57;4.97;;;;;;;-3.94;100.00;97978.00;2536092;29;20096;-80
2023/03/12 00:59:22;;;;;;;11.73;5.32;;;;;;;-3.83;100.00;97982.50;2535802;29;20079;-80
2023/03/12 01:00:38;;;;;;;12.98;5.68;;;;;;;-3.81;100.00;97986.78;2536604;29;20514;-82
2023/03/12 01:01:53;;;;;;;10.00;5.25;;;;;;;-3.80;100.00;97981.72;2536596;29;20068;-79
2023/03/12 01:03:09;;;;;;;13.10;5.93;;;;;;;-3.67;100.00;97984.56;2536233;29;20147;-80
2023/03/12 01:04:25;;;;;;;10.00;5.22;;;;;;;-3.58;100.00;97985.59;2536419;29;20597;-80
2023/03/12 01:05:41;;;;;;;10.95;5.63;;;;;;;-3.51;100.00;97983.16;2536669;29;20155;-81
2023/03/12 01:06:56;;;;;;;10.85;5.38;;;;;;;-3.43;100.00;97989.31;2536803;29;20484;-82
2023/03/12 01:08:12;;;;;;;12.82;6.00;;;;;;;-3.59;100.00;97983.00;2536645;29;20048;-81
2023/03/12 01:09:28;;;;;;;12.10;5.82;;;;;;;-3.66;100.00;97984.56;2536428;29;20086;-81
2023/03/12 01:10:43;;;;;;;13.32;5.72;;;;;;;-3.60;100.00;97987.28;2536433;29;20056;-83
2023/03/12 01:11:59;;;;;;;14.73;6.47;;;;;;;-3.78;100.00;97982.63;2536592;29;20111;-85
2023/03/12 01:13:15;;;;;;;16.58;6.47;;;;;;;-3.99;100.00;97983.84;2536248;29;20063;-82
2023/03/12 01:14:32;;;;;;;11.18;6.18;;;;;;;-3.83;100.00;97986.78;2536390;29;20459;-80
2023/03/12 01:15:48;;;;;;;17.40;6.88;;;;;;;-3.87;100.00;97990.97;2525954;29;20053;-84
2023/03/12 01:17:03;;;;;;;16.73;7.25;;;;;;;-3.93;100.00;97993.34;2530004;29;20048;-81
2023/03/12 01:18:19;;;;;;;13.55;6.72;;;;;;;-3.97;100.00;97994.13;2536577;29;20135;-80
2023/03/12 01:19:35;;;;;;;15.93;7.25;;;;;;;-3.93;100.00;97993.34;2536268;29;20048;-82
2023/03/12 01:20:50;;;;;;;17.08;7.13;;;;;;;-3.89;100.00;97994.28;2536346;29;20078;-80
2023/03/12 01:22:06;;;;;;;14.20;6.97;;;;;;;-3.96;100.00;97993.28;2536403;29;20066;-80
2023/03/12 01:23:22;;;;;;;15.00;7.28;;;;;;;-3.67;100.00;97992.22;2535973;29;20044;-80
2023/03/12 01:24:37;;;;;;;14.57;7.28;;;;;;;-3.72;100.00;97992.97;2536666;29;20048;-81
2023/03/12 01:25:54;;;;;;;13.88;6.38;;;;;;;-3.92;100.00;97989.13;2536501;29;20633;-82
2023/03/12 01:27:09;;;;;;;12.98;6.00;;;;;;;-3.79;100.00;97985.13;2536187;29;20111;-81
2023/03/12 01:28:25;;;;;;;13.73;5.32;;;;;;;-3.93;100.00;97988.25;2535986;29;20055;-83
2023/03/12 01:29:41;;;;;;;9.43;4.38;;;;;;;-4.15;100.00;97981.78;2536164;29;20095;-81
2023/03/12 01:30:57;;;;;;;10.10;4.93;;;;;;;-4.15;100.00;97985.22;2536709;29;20052;-80
2023/03/12 01:32:12;;;;;;;6.95;4.10;;;;;;;-4.34;100.00;97985.59;2536275;29;20088;-80
2023/03/12 01:33:28;;;;;;;11.77;4.47;;;;;;;-4.18;100.00;97984.28;2536189;29;20475;-80
2023/03/12 01:34:44;;;;;;;10.90;4.90;;;;;;;-4.01;100.00;97984.66;2536259;29;20669;-81
2023/03/12 01:35:59;;;;;;;10.73;4.75;;;;;;;-4.02;100.00;97990.63;2525702;29;20056;-82
2023/03/12 01:37:15;;;;;;;10.25;4.20;;;;;;;-4.06;100.00;97999.91;2529826;29;20055;-80
2023/03/12 01:38:31;;;;;;;12.30;5.15;;;;;;;-3.93;100.00;97993.34;2536110;29;20056;-81
2023/03/12 01:39:46;;;;;;;11.68;4.95;;;;;;;-4.12;100.00;97998.06;2536123;29;20056;-80
2023/03/12 01:41:02;;;;;;;9.95;5.28;;;;;;;-4.08;100.00;98001.56;2536313;29;20052;-81
2023/03/12 01:42:17;;;;;;;11.68;5.57;;;;;;;-4.17;100.00;97989.44;2536337;29;20064;-80
2023/03/12 01:43:37;;;;;;;13.23;5.30;;;;;;;-4.29;100.00;97990.00;2536267;29;20052;-80
2023/03/12 01:45:02;;;;;;;12.95;5.15;;;;;;;-4.18;100.00;97990.25;2536092;29;20159;-81
2023/03/12 01:46:28;;;;;;;11.88;6.07;;;;;;;-3.90;100.00;98002.81;2535591;29;20143;-80
2023/03/12 01:47:43;;;;;;;14.25;5.80;;;;;;;-3.97;100.00;97996.69;2535921;29;20079;-81
2023/03/12 01:49:10;;;;;;;13.93;5.82;;;;;;;-3.80;100.00;97988.53;2536059;29;20120;-85
2023/03/12 01:50:25;;;;;;;11.40;5.80;;;;;;;-3.98;100.00;97995.84;2536120;29;20051;-80
2023/03/12 01:51:55;;;;;;;14.50;6.25;;;;;;;-3.91;100.00;98001.06;2536148;29;20080;-80
2023/03/12 01:53:11;;;;;;;9.82;5.18;;;;;;;-4.16;100.00;98006.50;2525313;29;20084;-81
2023/03/12 01:54:39;;;;;;;11.45;5.82;;;;;;;-4.12;100.00;98005.72;2529798;29;20616;-81
2023/03/12 01:55:56;;;;;;;11.55;5.63;;;;;;;-4.15;100.00;98003.09;2536244;29;20058;-81
2023/03/12 01:57:19;;;;;;;13.50;5.43;;;;;;;-4.22;100.00;98000.38;2536098;29;20069;-80
2023/03/12 01:58:38;;;;;;;11.32;4.93;;;;;;;-4.33;100.00;98005.22;2536289;29;20048;-79
2023/03/12 01:59:58;;;;;;;10.23;4.70;;;;;;;-4.36;100.00;97995.78;2535630;29;20064;-81
2023/03/12 02:01:16;;;;;;;9.55;4.70;;;;;;;-4.34;100.00;97998.38;2536010;29;20082;-82
2023/03/12 02:02:35;;;;;;;9.65;4.03;;;;;;;-4.31;100.00;97999.31;2535976;29;20056;-81
2023/03/12 02:03:53;;;;;;;8.98;3.90;;;;;;;-4.44;100.00;98003.28;2535900;29;20068;-81
2023/03/12 02:05:36;;;;;;;10.40;4.63;;;;;;;-4.43;100.00;97988.78;2535823;29;20075;-81
2023/03/12 02:07:01;;;;;;;6.57;3.83;;;;;;;-4.75;100.00;98010.19;2535477;29;20058;-81
2023/03/12 02:08:17;;;;;;;10.00;4.05;;;;;;;-4.76;100.00;98005.00;2535992;29;20135;-79
2023/03/12 02:09:38;;;;;;;8.32;4.20;;;;;;;-4.61;100.00;98007.06;2535475;29;20088;-82
2023/03/12 02:10:54;;;;;;;8.85;3.53;;;;;;;-4.61;100.00;98002.84;2535167;29;20052;-80
2023/03/12 02:12:10;;;;;;;9.57;4.20;;;;;;;-4.70;100.00;98006.03;2535460;29;20067;-79
2023/03/12 02:13:26;;;;;;;9.50;4.95;;;;;;;-4.25;100.00;98001.16;2535787;29;20162;-80
2023/03/12 02:14:43;;;;;;;9.65;4.10;;;;;;;-4.69;100.00;98000.09;2536128;29;20181;-80
2023/03/12 02:15:59;;;;;;;11.60;4.47;;;;;;;-4.64;100.00;98004.44;2535695;29;20110;-80
2023/03/12 02:17:15;;;;;;;10.20;4.97;;;;;;;-4.59;100.00;98010.56;2536125;29;20108;-80
2023/03/12 02:18:33;;;;;;;11.60;4.60;;;;;;;-4.78;100.00;98004.13;2535805;29;20048;-80
2023/03/12 02:20:06;;;;;;;17.17;6.10;;;;;;;-4.41;100.00;98005.03;2535942;29;20094;-81
2023/03/12 02:21:26;;;;;;;12.60;5.10;;;;;;;-4.81;100.00;97999.78;2536029;29;20310;-82
2023/03/12 02:22:48;;;;;;;11.70;6.25;;;;;;;-4.47;100.00;98004.88;2535597;29;20159;-83
2023/03/12 02:24:39;;;;;;;14.55;6.38;;;;;;;-4.70;100.00;98005.16;2536062;29;20937;-85
2023/03/12 02:25:55;;;;;;;12.93;5.50;;;;;;;-4.35;100.00;98004.31;2536038;29;20052;-81
2023/03/12 02:27:11;;;;;;;14.77;5.75;;;;;;;-4.40;100.00;98007.63;2536043;29;20060;-80
2023/03/12 02:28:28;;;;;;;11.68;5.93;;;;;;;-4.45;100.00;98013.44;2535916;29;20052;-80
2023/03/12 02:29:45;;;;;;;14.45;6.13;;;;;;;-4.08;100.00;98009.22;2535130;29;20143;-81
2023/03/12 02:31:03;;;;;;;14.40;5.95;;;;;;;-4.74;100.00;98018.69;2525194;29;20064;-81
2023/03/12 02:32:25;;;;;;;11.07;5.85;;;;;;;-4.28;100.00;98014.72;2529862;29;20476;-81
2023/03/12 02:33:41;;;;;;;14.70;6.22;;;;;;;-4.33;100.00;98013.75;2535744;29;20551;-81
2023/03/12 02:34:58;;;;;;;11.25;5.63;;;;;;;-4.07;100.00;98021.19;2535914;29;20052;-81
2023/03/12 02:36:14;;;;;;;12.27;5.93;;;;;;;-3.94;100.00;98012.09;2536068;29;20951;-83
2023/03/12 02:37:30;;;;;;;13.13;5.78;;;;;;;-3.90;100.00;98016.47;2535777;29;20063;-80
2023/03/12 02:38:50;;;;;;;12.27;6.07;;;;;;;-3.80;100.00;98019.22;2536217;29;20052;-80
2023/03/12 02:40:28;;;;;;;9.70;5.78;;;;;;;-4.12;100.00;98023.63;2535328;29;20248;-81
2023/03/12 02:41:52;;;;;;;12.82;5.20;;;;;;;-3.97;100.00;98017.16;2535860;29;20051;-80
2023/03/12 02:43:09;;;;;;;12.27;6.20;;;;;;;-4.10;100.00;98026.25;2535431;29;20058;-80
2023/03/12 02:44:27;;;;;;;10.80;5.50;;;;;;;-4.17;100.00;98017.56;2535991;29;20056;-84
2023/03/12 02:45:42;;;;;;;13.77;5.85;;;;;;;-4.27;100.00;98018.16;2535990;29;20059;-80
2023/03/12 02:47:00;;;;;;;12.27;6.15;;;;;;;-4.41;100.00;98022.91;2536016;29;20059;-80
2023/03/12 02:48:16;;;;;;;17.35;5.07;;;;;;;-4.47;100.00;98026.22;2535860;29;20048;-82
2023/03/12 02:49:33;;;;;;;13.10;5.78;;;;;;;-4.38;100.00;98040.03;2535387;29;20059;-82
2023/03/12 02:50:48;;;;;;;14.00;6.00;;;;;;;-4.53;100.00;98031.16;2535789;29;20082;-81
2023/03/12 02:52:04;;;;;;;16.60;6.05;;;;;;;-4.40;100.00;98034.84;2536051;29;20055;-81
2023/03/12 02:53:20;;;;;;;12.50;5.40;;;;;;;-4.52;100.00;98035.44;2535629;29;20529;-81
2023/03/12 02:54:35;;;;;;;14.32;5.97;;;;;;;-4.36;100.00;98028.13;2535660;29;20056;-82
2023/03/12 02:55:51;;;;;;;11.85;5.30;;;;;;;-4.74;100.00;98032.34;2535834;29;20458;-83
2023/03/12 02:57:07;;;;;;;12.10;6.05;;;;;;;-4.69;100.00;98029.88;2535816;29;20079;-82
2023/03/12 02:58:23;;;;;;;16.02;6.55;;;;;;;-4.58;100.00;98031.03;2535643;29;20063;-82
2023/03/12 02:59:38;;;;;;;16.60;6.10;;;;;;;-4.35;100.00;98038.41;2524924;29;20056;-82
2023/03/12 03:00:54;;;;;;;14.63;5.70;;;;;;;-4.35;100.00;98040.09;2529343;29;20068;-81
2023/03/12 03:02:11;;;;;;;16.55;5.72;;;;;;;-4.59;100.00;98046.31;2535859;29;20044;-81
2023/03/12 03:03:27;;;;;;;10.40;5.13;;;;;;;-4.54;100.00;98049.84;2535671;29;20075;-84
2023/03/12 03:04:42;;;;;;;10.38;5.10;;;;;;;-4.73;100.00;98036.63;2535725;29;20059;-81
2023/03/12 03:05:58;;;;;;;11.55;4.78;;;;;;;-4.89;100.00;98037.00;2535744;29;20067;-82
2023/03/12 03:07:13;;;;;;;7.35;3.53;;;;;;;-5.24;100.00;98035.22;2535811;29;20048;-81
2023/03/12 03:08:29;;;;;;;5.30;3.13;;;;;;;-4.77;100.00;98037.34;2536033;29;20052;-81
2023/03/12 03:09:45;;;;;;;6.68;2.97;;;;;;;-4.86;100.00;98037.13;2535885;29;20059;-81
2023/03/12 03:11:01;;;;;;;8.93;3.35;;;;;;;-4.85;100.00;98034.59;2535895;29;20139;-88
2023/03/12 03:12:17;;;;;;;8.50;3.88;;;;;;;-4.53;100.00;98041.38;2535527;29;20108;-82
2023/03/12 03:13:33;;;;;;;7.50;3.88;;;;;;;-4.48;100.00;98031.25;2535502;29;20486;-81
2023/03/12 03:14:48;;;;;;;10.32;4.20;;;;;;;-4.42;100.00;98039.94;2535835;29;20056;-81
2023/03/12 03:16:04;;;;;;;10.70;4.50;;;;;;;-4.45;100.00;98050.09;2535770;29;20056;-81
2023/03/12 03:17:22;;;;;;;10.48;4.47;;;;;;;-4.49;100.00;98042.31;2535596;29;20079;-82
2023/03/12 03:18:38;;;;;;;13.23;4.80;;;;;;;-4.59;100.00;98042.06;2535379;29;20056;-82
2023/03/12 03:19:53;;;;;;;9.57;5.15;;;;;;;-4.55;100.00;98045.56;2535676;29;20510;-81
2023/03/12 03:21:15;;;;;;;8.82;4.07;;;;;;;-4.56;100.00;98042.13;2535852;29;20149;-81
2023/03/12 03:22:30;;;;;;;11.00;4.57;;;;;;;-4.52;100.00;98045.66;2536692;29;20491;-81
2023/03/12 03:23:48;;;;;;;12.20;4.60;;;;;;;-4.42;100.00;98049.28;2537284;29;20048;-82
2023/03/12 03:25:06;;;;;;;8.02;3.70;;;;;;;-4.36;100.00;98040.91;2537555;29;20091;-81
2023/03/12 03:26:22;;;;;;;9.18;4.18;;;;;;;-4.46;100.00;98037.28;2537488;29;20760;-82
2023/03/12 03:27:38;;;;;;;13.45;5.03;;;;;;;-4.52;100.00;98040.53;2537780;29;20048;-81
2023/03/12 03:28:54;;;;;;;9.80;4.35;;;;;;;-4.52;100.00;98037.97;2537660;29;20052;-81
2023/03/12 03:30:10;;;;;;;7.55;4.15;;;;;;;-4.49;100.00;98045.72;2537687;29;20060;-82
2023/03/12 03:31:27;;;;;;;14.30;4.82;;;;;;;-4.36;100.00;98053.69;2537500;29;20056;-82
2023/03/12 03:32:43;;;;;;;9.98;4.45;;;;;;;-4.32;100.00;98053.81;2537017;29;20060;-81
2023/03/12 03:33:58;;;;;;;11.40;4.60;;;;;;;-4.47;100.00;98056.00;2537618;29;20665;-83
2023/03/12 03:35:14;;;;;;;13.90;5.80;;;;;;;-4.42;100.00;98057.84;2537192;29;20056;-81
2023/03/12 03:36:30;;;;;;;10.18;4.90;;;;;;;-4.43;100.00;98060.34;2537303;29;20080;-80
2023/03/12 03:37:45;;;;;;;9.85;4.85;;;;;;;-4.52;100.00;98065.25;2537526;29;20080;-79
2023/03/12 03:39:01;;;;;;;13.80;5.20;;;;;;;-4.42;100.00;98062.06;2537339;29;20445;-82
2023/03/12 03:40:17;;;;;;;9.93;4.60;;;;;;;-4.65;100.00;98066.59;2537171;29;20507;-79
2023/03/12 03:41:33;;;;;;;10.77;5.07;;;;;;;-4.58;100.00;98065.94;2537444;29;20052;-82
2023/03/12 03:42:48;;;;;;;11.35;4.78;;;;;;;-4.83;100.00;98060.16;2536993;29;20067;-83
2023/03/12 03:44:06;;;;;;;11.73;5.13;;;;;;;-4.48;100.00;98059.38;2537374;29;20138;-82
2023/03/12 03:45:22;;;;;;;11.60;5.10;;;;;;;-4.47;100.00;98068.75;2537186;29;20060;-81
2023/03/12 03:46:38;;;;;;;12.07;5.13;;;;;;;-4.59;100.00;98062.50;2537420;29;20044;-81
2023/03/12 03:47:53;;;;;;;11.38;4.63;;;;;;;-4.52;100.00;98058.41;2537366;29;20155;-81
2023/03/12 03:49:09;;;;;;;11.18;4.78;;;;;;;-4.78;100.00;98065.41;2537198;29;20119;-81
2023/03/12 03:50:25;;;;;;;9.07;4.88;;;;;;;-4.74;100.00;98069.75;2536971;29;20059;-82
2023/03/12 03:51:41;;;;;;;13.00;5.30;;;;;;;-4.61;100.00;98069.28;2536520;29;20052;-82
2023/03/12 03:52:56;;;;;;;9.85;4.65;;;;;;;-4.66;100.00;98075.97;2537137;29;20314;-82
2023/03/12 03:54:12;;;;;;;11.40;4.35;;;;;;;-4.60;100.00;98081.22;2537269;29;20058;-80
2023/03/12 03:55:28;;;;;;;9.93;4.75;;;;;;;-4.50;100.00;98087.44;2537329;29;20066;-82
2023/03/12 03:56:44;;;;;;;11.30;4.65;;;;;;;-4.46;100.00;98084.16;2536979;29;20067;-82
2023/03/12 03:58:00;;;;;;;11.43;4.88;;;;;;;-4.48;100.00;98083.22;2536874;29;20048;-82
2023/03/12 03:59:16;;;;;;;10.20;4.95;;;;;;;-4.56;100.00;98087.28;2537068;29;20051;-80
2023/03/12 04:00:32;;;;;;;8.75;4.53;;;;;;;-4.68;100.00;98088.69;2537138;29;20056;-80
2023/03/12 04:01:47;;;;;;;8.80;4.30;;;;;;;-4.81;100.00;98094.28;2537197;29;20087;-80
2023/03/12 04:03:03;;;;;;;11.82;5.35;;;;;;;-4.63;100.00;98095.59;2536812;29;20621;-78
2023/03/12 04:04:19;;;;;;;10.45;4.15;;;;;;;-5.07;100.00;98091.84;2537106;29;20060;-79
2023/03/12 04:05:35;;;;;;;11.52;4.70;;;;;;;-4.83;100.00;98098.47;2536719;29;20435;-80
2023/03/12 04:06:50;;;;;;;14.32;4.93;;;;;;;-4.70;100.00;98094.56;2537161;29;20491;-80
2023/03/12 04:08:06;;;;;;;10.63;4.40;;;;;;;-4.59;100.00;98099.97;2537106;29;20048;-79
2023/03/12 04:09:22;;;;;;;9.60;4.80;;;;;;;-4.75;100.00;98098.69;2537033;29;20048;-81
2023/03/12 04:10:37;;;;;;;9.30;4.10;;;;;;;-5.02;100.00;98103.06;2537297;29;20044;-79
2023/03/12 04:11:53;;;;;;;9.18;4.15;;;;;;;-5.00;100.00;98103.09;2537259;29;20103;-87
2023/03/12 04:13:09;;;;;;;12.23;4.55;;;;;;;-4.95;100.00;98104.13;2536860;29;20052;-82
2023/03/12 04:14:24;;;;;;;9.20;4.72;;;;;;;-4.86;100.00;98106.91;2537155;29;20052;-82
2023/03/12 04:15:51;;;;;;;10.52;4.45;;;;;;;-5.01;100.00;98103.94;2536927;29;20500;-82
2023/03/12 04:17:07;;;;;;;8.20;3.97;;;;;;;-4.91;100.00;98105.94;2537291;29;20529;-81
2023/03/12 04:18:22;;;;;;;9.00;4.03;;;;;;;-5.04;100.00;98098.75;2537102;29;20480;-81
2023/03/12 04:19:38;;;;;;;11.18;4.57;;;;;;;-5.00;100.00;98098.88;2537278;29;20063;-81
2023/03/12 04:20:54;;;;;;;7.78;4.03;;;;;;;-4.90;100.00;98102.53;2526603;29;20067;-81
2023/03/12 04:22:10;;;;;;;8.05;3.78;;;;;;;-4.88;100.00;98102.59;2530569;29;20052;-81
2023/03/12 04:23:25;;;;;;;10.95;4.65;;;;;;;-4.84;100.00;98102.69;2536492;29;20092;-82
2023/03/12 04:24:41;;;;;;;9.63;4.60;;;;;;;-4.89;100.00;98096.63;2537091;29;20608;-82
2023/03/12 04:25:57;;;;;;;7.93;3.83;;;;;;;-4.89;100.00;98095.72;2537182;29;20051;-82
2023/03/12 04:27:12;;;;;;;10.07;3.63;;;;;;;-4.87;100.00;98083.91;2536876;29;20056;-81
2023/03/12 04:28:28;;;;;;;7.78;3.55;;;;;;;-5.01;100.00;98097.16;2537055;29;20220;-83
2023/03/12 04:29:44;;;;;;;8.90;3.45;;;;;;;-4.97;100.00;98086.19;2536894;29;20063;-81
2023/03/12 04:31:03;;;;;;;7.82;3.55;;;;;;;-4.89;100.00;98088.97;2537070;29;20414;-81
2023/03/12 04:32:19;;;;;;;6.22;3.38;;;;;;;-5.07;100.00;98089.28;2536517;29;20083;-87
2023/03/12 04:33:37;;;;;;;11.02;3.97;;;;;;;-5.01;100.00;98088.59;2536549;29;20044;-82
2023/03/12 04:34:52;;;;;;;7.78;3.63;;;;;;;-4.96;100.00;98082.81;2536694;29;20060;-82
2023/03/12 04:36:10;;;;;;;8.15;3.83;;;;;;;-5.07;100.00;98086.75;2537078;29;20059;-82
2023/03/12 04:37:25;;;;;;;7.40;3.92;;;;;;;-4.93;100.00;98093.94;2537108;29;20063;-82
2023/03/12 04:38:41;;;;;;;10.18;3.90;;;;;;;-5.03;100.00;98091.13;2536870;29;20477;-81
2023/03/12 04:39:56;;;;;;;6.80;3.38;;;;;;;-5.11;100.00;98087.50;2536012;29;20510;-80
2023/03/12 04:41:13;;;;;;;10.65;3.90;;;;;;;-5.15;100.00;98091.63;2536971;29;20052;-82
2023/03/12 04:42:29;;;;;;;11.80;3.72;;;;;;;-5.00;100.00;98093.78;2536562;29;20067;-81
2023/03/12 04:43:44;;;;;;;10.20;4.07;;;;;;;-5.32;100.00;98098.78;2536972;29;20427;-81
2023/03/12 04:45:01;;;;;;;7.07;3.67;;;;;;;-5.37;100.00;98100.34;2536632;29;20056;-85
2023/03/12 04:46:17;;;;;;;6.53;3.60;;;;;;;-5.25;100.00;98098.16;2525855;29;20432;-81
2023/03/12 04:47:33;;;;;;;8.45;4.10;;;;;;;-5.28;100.00;98099.75;2530475;29;20131;-81
2023/03/12 04:48:49;;;;;;;6.03;3.30;;;;;;;-5.15;100.00;98096.75;2536808;29;20048;-81
2023/03/12 04:50:05;;;;;;;7.32;3.40;;;;;;;-5.10;100.00;98101.97;2536578;29;20135;-80
2023/03/12 04:51:21;;;;;;;7.63;3.28;;;;;;;-5.24;100.00;98099.00;2536847;29;20437;-83
2023/03/12 04:52:37;;;;;;;6.78;3.30;;;;;;;-5.34;100.00;98102.97;2536899;29;20063;-85
2023/03/12 04:53:52;;;;;;;7.95;3.40;;;;;;;-5.47;100.00;98099.22;2536491;29;20084;-82
2023/03/12 04:55:08;;;;;;;10.52;3.70;;;;;;;-5.35;100.00;98102.97;2536942;29;20051;-81
2023/03/12 04:56:24;;;;;;;5.22;2.70;;;;;;;-5.46;100.00;98102.63;2536777;29;20064;-83
2023/03/12 04:57:40;;;;;;;8.60;3.35;;;;;;;-5.40;100.00;98108.75;2536938;29;20115;-80
2023/03/12 04:58:55;;;;;;;10.13;3.00;;;;;;;-5.30;100.00;98109.94;2536449;29;20056;-81
2023/03/12 05:00:14;;;;;;;7.43;3.20;;;;;;;-5.34;100.00;98110.63;2536809;29;20551;-85
2023/03/12 05:01:32;;;;;;;5.22;2.75;;;;;;;-5.49;100.00;98111.06;2536494;29;20048;-80
2023/03/12 05:02:48;;;;;;;8.45;3.58;;;;;;;-5.32;100.00;98109.00;2525975;29;20060;-86
2023/03/12 05:04:04;;;;;;;6.70;3.53;;;;;;;-5.16;100.00;98112.03;2530410;29;20060;-83
2023/03/12 05:05:20;;;;;;;8.90;3.40;;;;;;;-5.06;100.00;98110.59;2536902;29;20044;-81
2023/03/12 05:06:36;;;;;;;8.25;3.55;;;;;;;-4.93;100.00;98119.47;2536688;29;20052;-80
2023/03/12 05:07:51;;;;;;;8.30;3.05;;;;;;;-4.88;100.00;98118.78;2536290;29;20111;-85
2023/03/12 05:09:07;;;;;;;7.75;3.22;;;;;;;-4.88;100.00;98116.22;2536571;29;20172;-82
2023/03/12 05:10:23;;;;;;;8.32;3.13;;;;;;;-4.97;100.00;98118.50;2536301;29;20067;-81
2023/03/12 05:11:38;;;;;;;6.68;3.17;;;;;;;-4.97;100.00;98111.72;2536420;29;20071;-80
2023/03/12 05:12:54;;;;;;;5.82;3.03;;;;;;;-4.88;100.00;98112.81;2536126;29;20414;-81
2023/03/12 05:14:11;;;;;;;8.65;3.47;;;;;;;-4.98;100.00;98114.22;2536463;29;20690;-81
2023/03/12 05:15:26;;;;;;;7.90;3.65;;;;;;;-4.85;100.00;98120.56;2535515;29;20047;-83
2023/03/12 05:16:42;;;;;;;8.20;4.13;;;;;;;-5.06;100.00;98118.25;2535804;29;20510;-82
2023/03/12 05:17:58;;;;;;;8.48;4.28;;;;;;;-4.89;100.00;98119.59;2536229;29;20048;-82
2023/03/12 05:19:13;;;;;;;6.22;3.13;;;;;;;-4.89;100.00;98121.28;2536344;29;20052;-82
2023/03/12 05:20:29;;;;;;;11.25;4.53;;;;;;;-4.84;100.00;98124.84;2536070;29;20422;-82
2023/03/12 05:21:45;;;;;;;8.80;4.50;;;;;;;-5.08;100.00;98125.84;2536453;29;20048;-81
2023/03/12 05:23:01;;;;;;;8.85;4.13;;;;;;;-5.05;100.00;98117.44;2536071;29;20044;-80
2023/03/12 05:24:17;;;;;;;9.60;4.43;;;;;;;-4.92;100.00;98118.63;2536199;29;20158;-81
2023/03/12 05:25:37;;;;;;;10.90;3.97;;;;;;;-4.89;100.00;98121.28;2535971;29;20063;-81
2023/03/12 05:26:53;;;;;;;8.57;3.97;;;;;;;-4.99;100.00;98117.59;2536455;29;20440;-81
2023/03/12 05:28:08;;;;;;;8.65;4.18;;;;;;;-5.16;100.00;98123.09;2536248;29;20044;-81
2023/03/12 05:29:24;;;;;;;10.60;3.83;;;;;;;-5.22;100.00;98116.94;2536011;29;20368;-87
2023/03/12 05:30:39;;;;;;;9.45;4.05;;;;;;;-5.23;100.00;98115.19;2536357;29;20062;-84
2023/03/12 05:31:55;;;;;;;8.60;4.00;;;;;;;-5.12;100.00;98114.69;2535900;29;20118;-82
2023/03/12 05:33:11;;;;;;;11.75;3.95;;;;;;;-5.44;100.00;98116.31;2535985;29;20056;-81
2023/03/12 05:34:29;;;;;;;8.98;4.00;;;;;;;-5.62;100.00;98114.91;2535996;29;20554;-84
2023/03/12 05:35:44;;;;;;;10.88;4.68;;;;;;;-5.60;100.00;98117.50;2535826;29;20165;-81
2023/03/12 05:37:00;;;;;;;10.93;4.68;;;;;;;-5.49;100.00;98122.94;2535867;29;20147;-81
2023/03/12 05:38:16;;;;;;;11.13;3.78;;;;;;;-5.21;100.00;98122.09;2536189;29;20120;-83
2023/03/12 05:39:32;;;;;;;8.75;3.38;;;;;;;-5.44;100.00;98119.72;2536027;29;20044;-81
2023/03/12 05:40:55;;;;;;;7.80;3.28;;;;;;;-5.41;100.00;98119.78;2535997;29;20063;-81
2023/03/12 05:42:15;;;;;;;8.05;2.78;;;;;;;-5.35;100.00;98116.56;2536073;29;20052;-81
2023/03/12 05:43:31;;;;;;;5.82;2.88;;;;;;;-5.22;100.00;98119.47;2535923;29;20086;-81
2023/03/12 05:44:46;;;;;;;7.10;3.67;;;;;;;-5.07;100.00;98122.47;2535274;29;20617;-81
2023/03/12 05:46:04;;;;;;;8.32;4.03;;;;;;;-4.87;100.00;98120.50;2536026;29;20070;-81
2023/03/12 05:47:20;;;;;;;8.65;4.07;;;;;;;-4.87;100.00;98120.50;2515783;29;20159;-82
2023/03/12 05:48:36;;;;;;;9.35;3.70;;;;;;;-4.63;100.00;98121.13;2524264;29;20048;-81
2023/03/12 05:49:52;;;;;;;8.57;3.90;;;;;;;-4.52;100.00;98121.44;2525837;29;20049;-84
2023/03/12 05:51:07;;;;;;;11.55;4.60;;;;;;;-4.42;100.00;98125.97;2529519;29;20075;-82
2023/03/12 05:52:23;;;;;;;8.27;4.05;;;;;;;-4.57;100.00;98116.22;2535634;29;20834;-81
2023/03/12 05:53:39;;;;;;;9.20;3.80;;;;;;;-4.52;100.00;98124.00;2535733;29;20577;-82
2023/03/12 05:54:54;;;;;;;8.73;4.65;;;;;;;-4.51;100.00;98124.03;2536331;29;20059;-81